Latest Weather Observations for Norfolk Island

IDN60801

Issued at 1:35 am EDT Monday 27 February 2017 (issued every 30 minutes, with the page automatically refreshed every 10 minutes)

About weather observations | Map of weather stations | Latest weather observations for NSW | Other Formats
Station Details ID: 200288 Name: NORFOLK ISLAND AERO Lat: -29.04 Lon: 167.94 Height: 111.73 m
Data from the previous 72 hours. | See also: Recent months at Norfolk Island
Date/Time
EDT
Temp
°C
App
Temp
°C
Dew
Point
°C
Rel
Hum
%
Delta-T
°C
Wind Press
QNH
hPa
Press
MSL
hPa
Rain since
9am
mm
Dir  Spd
km/h
Gust
km/h
Spd
kts
Gust
kts
27/01:30am 21.5 20.7 18.1 81 2.1 ENE 19 28 10 15 1018.0 1017.5 0.4
27/01:00am 21.6 21.1 17.7 78 2.4 ENE 17 20 9 11 1018.1 1017.6 0.4
27/12:30am 21.7 20.7 17.5 77 2.6 ENE 19 26 10 14 1018.3 1017.8 0.4
27/12:00am 21.6 20.5 17.4 77 2.6 ENE 19 26 10 14 1018.4 1017.9 0.4
 
Date/Time
EDT
Temp
°C
App
Temp
°C
Dew
Point
°C
Rel
Hum
%
Delta-T
°C
Wind Press
QNH
hPa
Press
MSL
hPa
Rain since
9am
mm
Dir  Spd
km/h
Gust
km/h
Spd
kts
Gust
kts
26/11:30pm 21.8 20.7 17.8 78 2.5 ENE 20 26 11 14 1018.6 1018.1 0.4
26/11:00pm 22.2 21.4 18.5 79 2.3 E 20 26 11 14 1018.6 1018.1 0.4
26/10:30pm 22.3 21.7 18.5 79 2.4 ENE 19 28 10 15 1018.5 1018.0 0.4
26/10:00pm 22.1 21.8 18.3 79 2.4 ENE 17 22 9 12 1018.5 1018.0 0.4
26/09:30pm 22.0 22.1 18.3 79 2.3 E 15 19 8 10 1018.3 1017.8 0.4
26/09:00pm 21.9 21.6 18.2 79 2.3 E 17 28 9 15 1018.3 1017.8 0.4
26/08:30pm 22.1 21.2 18.3 79 2.4 E 20 26 11 14 1017.9 1017.4 0.4
26/08:00pm 22.0 21.5 18.7 81 2.1 E 19 26 10 14 1017.8 1017.3 0.4
26/07:30pm 21.9 21.4 18.7 82 2.0 E 19 26 10 14 1017.6 1017.1 0.4
26/07:13pm 21.8 21.3 19.1 84 1.7 E 20 32 11 17 1017.3 1016.8 0.4
26/07:00pm 21.7 21.4 19.5 87 1.4 E 20 28 11 15 1017.0 1016.5 0.4
26/06:53pm 21.7 21.6 19.5 87 1.4 E 19 26 10 14 1017.0 1016.5 0.4
26/06:30pm 21.5 21.3 18.6 83 1.8 E 17 24 9 13 1016.8 1016.3 0.4
26/06:00pm 21.7 21.1 18.5 82 2.0 E 19 28 10 15 1016.4 1015.9 0.4
26/05:41pm 21.6 21.2 19.4 87 1.4 E 20 26 11 14 1016.2 1015.7 0.4
26/05:30pm 21.4 20.2 19.2 87 1.4 E 24 33 13 18 1016.1 1015.6 0.4
26/05:16pm 22.1 21.7 19.4 85 1.7 E 20 30 11 16 1016.0 1015.5 0.0
26/05:00pm 23.0 21.7 18.1 74 3.1 E 22 32 12 17 1016.1 1015.6 0.0
26/04:30pm 23.6 22.0 17.5 68 3.8 E 22 33 12 18 1015.8 1015.3 0.0
26/04:00pm 23.8 21.5 17.7 68 3.8 E 26 33 14 18 1015.6 1015.1 0.0
26/03:30pm 23.3 21.6 18.0 72 3.3 E 24 33 13 18 1015.7 1015.2 0.0
26/03:00pm 23.9 22.0 17.7 68 3.9 E 24 35 13 19 1015.8 1015.3 0.0
26/02:30pm 24.6 22.3 17.6 65 4.4 E 26 39 14 21 1015.7 1015.2 0.0
26/02:00pm 24.4 22.8 19.1 72 3.4 E 26 37 14 20 1015.8 1015.3 0.0
26/01:30pm 23.9 21.5 18.2 70 3.6 E 28 35 15 19 1015.9 1015.4 0.0
26/01:00pm 25.2 23.7 18.6 67 4.2 E 24 33 13 18 1016.0 1015.5 0.0
26/12:30pm 25.2 23.2 17.4 62 4.9 E 24 35 13 19 1016.0 1015.5 0.0
26/12:00pm 24.0 22.7 18.1 69 3.7 E 22 32 12 17 1016.0 1015.5 0.0
26/11:30am 24.3 22.1 17.9 67 4.0 E 26 33 14 18 1016.2 1015.7 0.0
26/11:00am 24.1 20.8 17.9 68 3.9 E 32 39 17 21 1016.0 1015.5 0.0
26/10:30am 23.9 22.1 18.7 72 3.3 E 26 35 14 19 1016.0 1015.5 0.0
26/10:00am 23.3 21.3 17.5 70 3.6 E 24 35 13 19 1016.1 1015.6 0.0
26/09:30am 23.2 22.1 17.8 71 3.4 E 20 30 11 16 1016.0 1015.5 0.0
26/09:00am 22.9 22.1 18.1 74 3.0 E 19 26 10 14 1015.9 1015.4 10.0
26/08:30am 22.7 20.8 17.7 73 3.1 E 24 32 13 17 1015.7 1015.2 10.0
26/08:00am 22.5 21.7 17.9 75 2.9 E 19 28 10 15 1015.7 1015.2 10.0
26/07:30am 22.0 21.0 18.0 78 2.5 E 20 28 11 15 1015.4 1014.9 10.0
26/07:00am 21.4 20.6 17.9 80 2.2 E 19 32 10 17 1015.1 1014.6 10.0
26/06:30am 20.8 20.1 18.2 85 1.6 E 19 28 10 15 1014.8 1014.3 10.0
26/06:00am 20.1 19.4 17.3 84 1.7 E 17 22 9 12 1014.6 1014.1 10.0
26/05:30am 20.2 19.1 17.4 84 1.7 E 19 28 10 15 1014.3 1013.8 10.0
26/05:00am 20.3 19.3 17.5 84 1.7 E 19 26 10 14 1014.0 1013.4 10.0
26/04:30am 20.3 20.3 18.2 88 1.3 E 15 24 8 13 1013.9 1013.3 10.0
26/04:00am 19.9 19.9 18.1 89 1.1 E 15 20 8 11 1013.7 1013.1 10.0
26/03:30am 19.9 19.1 18.0 89 1.2 E 19 26 10 14 1013.7 1013.1 10.0
26/03:00am 20.0 20.1 18.4 90 1.0 E 15 22 8 12 1013.7 1013.1 10.0
26/02:37am 20.1 20.7 18.7 92 0.9 ESE 13 22 7 12 1013.9 1013.3 8.2
26/02:31am 20.0 21.4 18.6 92 0.9 ESE 9 15 5 8 1013.9 1013.3 7.2
26/02:30am 19.9 21.3 18.6 92 0.8 ESE 9 15 5 8 1013.9 1013.3 7.2
26/02:00am 20.1 18.7 18.7 92 0.9 ENE 24 33 13 18 1014.1 1013.6 4.8
26/01:44am 19.6 18.1 17.7 89 1.2 E 22 35 12 19 1014.1 1013.6 3.0
26/01:30am 20.5 20.1 18.1 86 1.5 E 17 32 9 17 1014.1 1013.6 1.0
26/01:00am 21.0 21.4 18.1 83 1.8 E 13 17 7 9 1014.3 1013.8 0.6
26/12:30am 20.8 20.8 18.1 84 1.7 E 15 19 8 10 1014.5 1014.0 0.6
26/12:00am 20.4 20.2 17.6 84 1.7 E 15 20 8 11 1014.6 1014.1 0.6
 
Date/Time
EDT
Temp
°C
App
Temp
°C
Dew
Point
°C
Rel
Hum
%
Delta-T
°C
Wind Press
QNH
hPa
Press
MSL
hPa
Rain since
9am
mm
Dir  Spd
km/h
Gust
km/h
Spd
kts
Gust
kts
25/11:30pm 20.1 20.2 18.3 89 1.1 ESE 15 19 8 10 1014.9 1014.4 0.6
25/11:14pm 20.4 19.7 18.3 88 1.3 E 19 30 10 16 1015.0 1014.5 0.6
25/11:00pm 21.6 21.1 16.9 74 2.9 E 15 20 8 11 1014.9 1014.4 0.0
25/10:30pm 21.6 21.2 17.2 76 2.7 E 15 20 8 11 1014.9 1014.4 0.0
25/10:00pm 21.6 20.3 16.9 74 2.9 E 19 28 10 15 1014.8 1014.3 0.0
25/09:30pm 21.4 20.1 16.8 75 2.8 ESE 19 30 10 16 1014.7 1014.2 0.0
25/09:00pm 21.1 20.2 17.7 81 2.1 E 19 26 10 14 1014.7 1014.2 0.0
25/08:30pm 21.4 20.7 17.3 77 2.5 E 17 28 9 15 1014.6 1014.1 0.0
25/08:00pm 21.4 20.3 17.3 77 2.5 E 19 28 10 15 1014.6 1014.1 0.0
25/07:30pm 21.3 19.9 17.1 77 2.6 ESE 20 30 11 16 1014.3 1013.8 0.0
25/07:00pm 21.3 20.0 16.7 75 2.8 E 19 26 10 14 1014.1 1013.6 0.0
25/06:30pm 21.2 20.1 16.4 74 2.9 E 17 24 9 13 1014.0 1013.4 0.0
25/06:00pm 21.9 20.6 16.8 73 3.1 E 19 28 10 15 1013.7 1013.1 0.0
25/05:30pm 22.4 21.1 16.7 70 3.5 ESE 19 28 10 15 1013.5 1013.0 0.0
25/05:00pm 23.4 22.3 16.4 64 4.3 ESE 17 26 9 14 1013.3 1012.8 0.0
25/04:30pm 23.7 22.0 17.1 66 4.1 E 22 33 12 18 1013.1 1012.6 0.0
25/04:00pm 24.3 23.0 16.9 63 4.6 ESE 19 28 10 15 1013.0 1012.5 0.0
25/03:30pm 23.6 22.2 16.6 65 4.3 ESE 19 30 10 16 1013.0 1012.5 0.0
25/03:00pm 23.6 21.8 17.0 66 4.1 SE 22 33 12 18 1013.0 1012.5 0.0
25/02:30pm 24.1 22.2 17.7 67 4.0 ESE 24 35 13 19 1013.2 1012.7 0.0
25/02:00pm 23.7 22.1 17.4 68 3.9 SE 22 33 12 18 1013.5 1013.0 0.0
25/01:30pm 24.1 22.2 16.8 63 4.5 ESE 22 32 12 17 1013.9 1013.3 0.0
25/01:00pm 23.0 21.4 17.4 70 3.5 ESE 22 32 12 17 1014.0 1013.4 0.0
25/12:30pm 24.6 23.1 17.6 65 4.4 ESE 22 35 12 19 1014.2 1013.7 0.0
25/12:00pm 23.4 21.7 17.1 67 3.9 ESE 22 32 12 17 1014.5 1014.0 0.0
25/11:30am 23.2 22.0 17.1 68 3.8 ESE 19 28 10 15 1014.7 1014.2 0.0
25/11:00am 23.6 22.1 16.2 63 4.5 ESE 19 28 10 15 1014.8 1014.3 0.0
25/10:30am 23.4 21.4 15.6 61 4.7 ESE 20 30 11 16 1014.9 1014.4 0.0
25/10:00am 24.0 22.6 16.5 63 4.6 ESE 19 28 10 15 1015.0 1014.5 0.0
25/09:30am 23.5 22.5 16.5 65 4.3 ESE 17 26 9 14 1015.0 1014.5 0.0
25/09:00am 23.3 22.0 16.8 67 4.0 ESE 19 28 10 15 1014.9 1014.4 0.0
25/08:30am 23.8 22.9 16.8 65 4.3 ESE 17 26 9 14 1014.9 1014.4 0.0
25/08:00am 22.5 20.7 15.5 64 4.2 ESE 19 26 10 14 1015.0 1014.5 0.0
25/07:30am 21.4 20.7 16.5 73 3.0 SE 15 20 8 11 1014.9 1014.4 0.0
25/07:00am 22.2 21.5 16.5 70 3.5 ESE 15 19 8 10 1014.8 1014.3 0.0
25/06:30am 21.5 21.3 15.7 69 3.5 ESE 11 15 6 8 1014.8 1014.3 0.0
25/06:00am 21.1 20.4 16.3 74 2.9 SE 15 24 8 13 1014.7 1014.2 0.0
25/05:30am 20.5 20.0 15.8 74 2.8 ESE 13 22 7 12 1014.5 1014.0 0.0
25/05:00am 20.4 19.7 15.5 73 2.9 ESE 13 19 7 10 1014.4 1013.9 0.0
25/04:30am 20.5 20.0 16.0 75 2.7 ESE 13 20 7 11 1014.3 1013.8 0.0
25/04:00am 20.3 19.3 15.6 74 2.8 ESE 15 24 8 13 1014.2 1013.7 0.0
25/03:30am 20.3 19.4 15.8 75 2.7 ESE 15 19 8 10 1014.3 1013.8 0.0
25/03:00am 20.3 19.2 15.2 72 3.0 ESE 15 26 8 14 1014.2 1013.7 0.0
25/02:30am 20.3 19.5 15.2 72 3.0 ESE 13 22 7 12 1014.3 1013.8 0.0
25/02:00am 20.2 19.4 15.1 72 3.0 E 13 20 7 11 1014.5 1014.0 0.0
25/01:30am 20.6 20.2 16.1 75 2.7 ESE 13 20 7 11 1014.7 1014.2 0.0
25/01:00am 20.2 19.6 15.7 75 2.7 ESE 13 19 7 10 1015.0 1014.5 0.0
25/12:30am 20.5 19.8 15.5 73 3.0 E 13 19 7 10 1015.3 1014.8 0.0
25/12:00am 20.4 19.0 15.5 73 2.9 E 17 22 9 12 1015.5 1015.0 0.0
 
Date/Time
EDT
Temp
°C
App
Temp
°C
Dew
Point
°C
Rel
Hum
%
Delta-T
°C
Wind Press
QNH
hPa
Press
MSL
hPa
Rain since
9am
mm
Dir  Spd
km/h
Gust
km/h
Spd
kts
Gust
kts
24/11:30pm 20.6 19.1 15.2 71 3.2 E 17 22 9 12 1015.8 1015.3 0.0
24/11:00pm 20.7 19.5 15.1 70 3.3 E 15 24 8 13 1016.0 1015.5 0.0
24/10:30pm 20.9 20.0 15.9 73 3.0 E 15 22 8 12 1016.3 1015.8 0.0
24/10:00pm 21.1 20.6 15.8 71 3.2 ESE 13 19 7 10 1016.4 1015.9 0.0
24/09:30pm 21.0 20.5 15.8 72 3.1 E 13 19 7 10 1016.5 1016.0 0.0
24/09:00pm 21.3 20.9 16.2 72 3.1 ESE 13 19 7 10 1016.4 1015.9 0.0
24/08:30pm 21.0 19.7 15.8 72 3.1 E 17 24 9 13 1016.4 1015.9 0.0
24/08:00pm 21.2 20.4 16.2 73 3.0 ESE 15 26 8 14 1016.4 1015.9 0.0
24/07:30pm 21.2 19.5 15.7 71 3.3 ESE 19 30 10 16 1016.2 1015.7 0.0
24/07:00pm 21.2 20.7 15.9 72 3.2 ESE 13 20 7 11 1016.0 1015.5 0.0
24/06:30pm 21.5 19.8 15.7 69 3.5 ESE 19 30 10 16 1015.8 1015.3 0.0
24/06:00pm 21.9 20.1 15.4 66 3.9 ESE 19 30 10 16 1015.7 1015.2 0.0
24/05:30pm 22.5 20.9 16.1 67 3.9 ESE 19 30 10 16 1015.5 1015.0 0.0
24/05:00pm 23.3 21.7 16.4 65 4.2 ESE 20 28 11 15 1015.5 1015.0 0.0
24/04:30pm 23.4 21.0 15.4 60 4.8 SE 22 33 12 18 1015.4 1014.9 0.0
24/04:00pm 23.6 21.2 16.4 64 4.4 ESE 24 33 13 18 1015.4 1014.9 0.0
24/03:30pm 23.8 21.7 16.1 62 4.7 SE 22 32 12 17 1015.6 1015.1 0.0
24/03:00pm 24.4 21.8 15.9 59 5.2 SE 24 33 13 18 1015.7 1015.2 0.0
24/02:30pm 23.5 20.9 15.9 62 4.6 SE 24 32 13 17 1015.9 1015.4 0.0
24/02:00pm 23.3 20.8 16.1 64 4.4 SE 24 37 13 20 1016.1 1015.6 0.0
24/01:30pm 23.6 21.1 16.2 63 4.5 SE 24 37 13 20 1016.4 1015.9 0.0
24/01:00pm 25.4 22.6 16.3 57 5.6 ESE 26 37 14 20 1016.5 1016.0 0.0
24/12:30pm 24.9 22.5 16.3 59 5.3 ESE 24 37 13 20 1016.8 1016.3 0.0
24/12:00pm 24.4 21.8 16.0 59 5.1 ESE 24 37 13 20 1017.0 1016.5 0.0
24/11:30am 24.2 20.7 14.6 55 5.7 ESE 26 37 14 20 1017.3 1016.8 0.0
24/11:00am 23.8 20.5 15.1 58 5.2 ESE 26 37 14 20 1017.5 1017.0 0.0
24/10:30am 24.1 21.0 15.5 58 5.2 ESE 26 37 14 20 1017.6 1017.1 0.0
24/10:00am 23.7 20.9 14.2 55 5.6 ESE 22 35 12 19 1017.8 1017.3 0.0
24/09:30am 23.0 20.3 15.7 63 4.4 ESE 24 33 13 18 1017.8 1017.3 0.0
24/09:00am 22.9 19.8 15.6 63 4.4 ESE 26 39 14 21 1017.7 1017.2 0.4
24/08:30am 23.2 21.1 16.1 64 4.3 ESE 22 33 12 18 1017.7 1017.2 0.4
24/08:00am 22.3 19.7 15.8 66 3.9 ESE 24 33 13 18 1017.6 1017.1 0.4
24/07:30am 21.3 19.2 16.2 72 3.1 ESE 22 35 12 19 1017.4 1016.9 0.4
24/07:00am 20.4 21.1 18.0 86 1.5 ESE 11 15 6 8 1017.4 1016.9 0.4
24/06:30am 20.1 19.6 17.0 82 1.9 ESE 15 24 8 13 1017.5 1017.0 0.2
24/06:00am 18.7 18.1 15.7 83 1.8 ESE 13 20 7 11 1017.4 1016.9 0.2
24/05:59am 18.6 17.6 15.6 83 1.8 ESE 15 20 8 11 1017.4 1016.9 0.2
24/05:39am 19.1 16.9 15.9 82 1.9 ESE 22 33 12 18 1017.4 1016.9 0.0
24/05:30am 19.5 17.4 15.1 76 2.6 ESE 20 33 11 18 1017.3 1016.8 0.0
24/05:29am 19.3 17.2 15.2 77 2.4 ESE 20 33 11 18 1017.3 1016.8 0.0
24/05:11am 18.9 16.0 16.1 84 1.7 ESE 26 39 14 21 1017.2 1016.7 0.0
24/05:00am 19.8 16.9 16.0 79 2.3 ESE 26 39 14 21 1016.9 1016.4 0.0
24/04:30am 20.8 18.4 17.4 81 2.1 ESE 26 41 14 22 1016.6 1016.1 0.0
24/04:00am 20.7 19.1 16.4 76 2.6 ESE 20 30 11 16 1016.4 1015.9 0.0
24/03:30am 20.7 19.9 17.1 80 2.2 ESE 17 26 9 14 1016.4 1015.9 0.0
24/03:00am 21.2 19.6 16.4 74 2.9 ESE 20 35 11 19 1016.6 1016.1 0.0
24/02:30am 21.1 19.5 15.9 72 3.1 ESE 19 30 10 16 1016.8 1016.3 0.0
24/02:00am 21.2 20.4 17.1 77 2.5 ESE 17 30 9 16 1016.9 1016.4 0.0
24/01:30am 21.3 20.2 16.4 73 3.0 ESE 17 30 9 16 1017.1 1016.6 0.0

Other Formats:

Comma delimited format used in spreadsheet applications
http://www.bom.gov.au/fwo/IDN60801/IDN60801.94996.axf

JavaScript Object Notation format (JSON) in row-major order
http://www.bom.gov.au/fwo/IDN60801/IDN60801.94996.json